sensor_id;sensor_type;location;lat;lon;timestamp;pressure;altitude;pressure_sealevel;temperature;humidity
55301;BME280;58302;51.446;-2.000;2023-12-20T00:02:02;101723.56;;;4.14;100.00
55301;BME280;58302;51.446;-2.000;2023-12-20T00:04:28;101727.28;;;4.13;100.00
55301;BME280;58302;51.446;-2.000;2023-12-20T00:06:54;101726.00;;;4.09;100.00
55301;BME280;58302;51.446;-2.000;2023-12-20T00:09:20;101716.63;;;4.05;100.00
55301;BME280;58302;51.446;-2.000;2023-12-20T00:11:47;101706.25;;;4.02;100.00
55301;BME280;58302;51.446;-2.000;2023-12-20T00:14:13;101708.75;;;4.03;100.00
55301;BME280;58302;51.446;-2.000;2023-12-20T00:16:39;101720.22;;;4.12;100.00
55301;BME280;58302;51.446;-2.000;2023-12-20T00:19:05;101700.38;;;4.13;100.00
55301;BME280;58302;51.446;-2.000;2023-12-20T00:21:32;101708.72;;;4.18;100.00
55301;BME280;58302;51.446;-2.000;2023-12-20T00:23:58;101702.88;;;4.14;100.00
55301;BME280;58302;51.446;-2.000;2023-12-20T00:26:24;101701.84;;;4.15;100.00
55301;BME280;58302;51.446;-2.000;2023-12-20T00:28:50;101696.66;;;4.14;100.00
55301;BME280;58302;51.446;-2.000;2023-12-20T00:31:16;101691.13;;;4.22;100.00
55301;BME280;58302;51.446;-2.000;2023-12-20T00:33:42;101689.72;;;4.26;100.00
55301;BME280;58302;51.446;-2.000;2023-12-20T00:36:09;101691.66;;;4.32;100.00
55301;BME280;58302;51.446;-2.000;2023-12-20T00:38:35;101680.34;;;4.43;100.00
55301;BME280;58302;51.446;-2.000;2023-12-20T00:41:01;101678.94;;;4.47;100.00
55301;BME280;58302;51.446;-2.000;2023-12-20T00:43:28;101665.47;;;4.47;100.00
55301;BME280;58302;51.446;-2.000;2023-12-20T00:45:54;101666.06;;;4.43;100.00
55301;BME280;58302;51.446;-2.000;2023-12-20T00:48:21;101669.78;;;4.42;100.00
55301;BME280;58302;51.446;-2.000;2023-12-20T00:50:47;101674.53;;;4.40;100.00
55301;BME280;58302;51.446;-2.000;2023-12-20T00:53:13;101684.03;;;4.36;100.00
55301;BME280;58302;51.446;-2.000;2023-12-20T00:55:39;101685.47;;;4.38;100.00
55301;BME280;58302;51.446;-2.000;2023-12-20T00:58:06;101681.53;;;4.34;100.00
55301;BME280;58302;51.446;-2.000;2023-12-20T01:00:32;101684.97;;;4.28;100.00
55301;BME280;58302;51.446;-2.000;2023-12-20T01:02:58;101689.34;;;4.29;100.00
55301;BME280;58302;51.446;-2.000;2023-12-20T01:05:24;101678.59;;;4.29;100.00
55301;BME280;58302;51.446;-2.000;2023-12-20T01:07:49;101688.06;;;4.25;100.00
55301;BME280;58302;51.446;-2.000;2023-12-20T01:10:16;101696.97;;;4.26;100.00
55301;BME280;58302;51.446;-2.000;2023-12-20T01:12:43;101706.13;;;4.31;100.00
55301;BME280;58302;51.446;-2.000;2023-12-20T01:15:09;101703.81;;;4.28;100.00
55301;BME280;58302;51.446;-2.000;2023-12-20T01:17:35;101690.63;;;4.33;100.00
55301;BME280;58302;51.446;-2.000;2023-12-20T01:20:02;101686.25;;;4.32;100.00
55301;BME280;58302;51.446;-2.000;2023-12-20T01:22:28;101692.31;;;4.34;100.00
55301;BME280;58302;51.446;-2.000;2023-12-20T01:24:54;101688.94;;;4.32;100.00
55301;BME280;58302;51.446;-2.000;2023-12-20T01:27:20;101686.91;;;4.34;100.00
55301;BME280;58302;51.446;-2.000;2023-12-20T01:29:46;101687.13;;;4.39;100.00
55301;BME280;58302;51.446;-2.000;2023-12-20T01:32:12;101683.94;;;4.51;100.00
55301;BME280;58302;51.446;-2.000;2023-12-20T01:34:38;101685.03;;;4.56;100.00
55301;BME280;58302;51.446;-2.000;2023-12-20T01:37:04;101681.31;;;4.57;100.00
55301;BME280;58302;51.446;-2.000;2023-12-20T01:39:30;101682.13;;;4.58;100.00
55301;BME280;58302;51.446;-2.000;2023-12-20T01:41:56;101675.13;;;4.63;100.00
55301;BME280;58302;51.446;-2.000;2023-12-20T01:44:22;101686.41;;;4.73;100.00
55301;BME280;58302;51.446;-2.000;2023-12-20T01:46:48;101688.50;;;4.78;100.00
55301;BME280;58302;51.446;-2.000;2023-12-20T01:49:15;101685.81;;;4.78;100.00
55301;BME280;58302;51.446;-2.000;2023-12-20T01:51:41;101694.53;;;4.80;100.00
55301;BME280;58302;51.446;-2.000;2023-12-20T01:54:07;101701.06;;;4.71;100.00
55301;BME280;58302;51.446;-2.000;2023-12-20T01:56:34;101701.59;;;4.60;100.00
55301;BME280;58302;51.446;-2.000;2023-12-20T01:59:00;101710.72;;;4.59;100.00
55301;BME280;58302;51.446;-2.000;2023-12-20T02:01:27;101698.28;;;4.58;100.00
55301;BME280;58302;51.446;-2.000;2023-12-20T02:03:54;101708.06;;;4.65;100.00
55301;BME280;58302;51.446;-2.000;2023-12-20T02:06:23;101704.16;;;4.68;100.00
55301;BME280;58302;51.446;-2.000;2023-12-20T02:08:50;101694.47;;;4.73;100.00
55301;BME280;58302;51.446;-2.000;2023-12-20T02:11:16;101695.56;;;4.79;100.00
55301;BME280;58302;51.446;-2.000;2023-12-20T02:13:42;101698.66;;;4.83;100.00
55301;BME280;58302;51.446;-2.000;2023-12-20T02:16:08;101708.59;;;4.82;100.00
55301;BME280;58302;51.446;-2.000;2023-12-20T02:18:34;101706.38;;;4.86;100.00
55301;BME280;58302;51.446;-2.000;2023-12-20T02:21:00;101690.19;;;4.86;100.00
55301;BME280;58302;51.446;-2.000;2023-12-20T02:23:26;101694.19;;;4.90;100.00
55301;BME280;58302;51.446;-2.000;2023-12-20T02:25:52;101692.31;;;4.90;100.00
55301;BME280;58302;51.446;-2.000;2023-12-20T02:28:18;101695.25;;;4.95;100.00
55301;BME280;58302;51.446;-2.000;2023-12-20T02:30:44;101692.72;;;4.94;100.00
55301;BME280;58302;51.446;-2.000;2023-12-20T02:33:12;101693.97;;;4.91;100.00
55301;BME280;58302;51.446;-2.000;2023-12-20T02:35:38;101695.97;;;4.83;100.00
55301;BME280;58302;51.446;-2.000;2023-12-20T02:38:04;101696.13;;;4.74;100.00
55301;BME280;58302;51.446;-2.000;2023-12-20T02:40:30;101701.97;;;4.78;100.00
55301;BME280;58302;51.446;-2.000;2023-12-20T02:42:57;101691.56;;;4.75;100.00
55301;BME280;58302;51.446;-2.000;2023-12-20T02:45:23;101688.44;;;4.71;100.00
55301;BME280;58302;51.446;-2.000;2023-12-20T02:47:49;101694.28;;;4.75;100.00
55301;BME280;58302;51.446;-2.000;2023-12-20T02:50:15;101703.19;;;4.75;100.00
55301;BME280;58302;51.446;-2.000;2023-12-20T02:52:44;101706.28;;;4.72;100.00
55301;BME280;58302;51.446;-2.000;2023-12-20T02:55:10;101701.53;;;4.74;100.00
55301;BME280;58302;51.446;-2.000;2023-12-20T02:57:38;101707.13;;;4.73;100.00
55301;BME280;58302;51.446;-2.000;2023-12-20T03:00:10;101691.81;;;4.80;100.00
55301;BME280;58302;51.446;-2.000;2023-12-20T03:02:37;101688.06;;;4.74;100.00
55301;BME280;58302;51.446;-2.000;2023-12-20T03:05:03;101699.69;;;4.82;100.00
55301;BME280;58302;51.446;-2.000;2023-12-20T03:07:29;101713.16;;;4.82;100.00
55301;BME280;58302;51.446;-2.000;2023-12-20T03:09:55;101723.31;;;4.80;100.00
55301;BME280;58302;51.446;-2.000;2023-12-20T03:12:21;101728.28;;;4.83;100.00
55301;BME280;58302;51.446;-2.000;2023-12-20T03:14:48;101728.28;;;4.83;100.00
55301;BME280;58302;51.446;-2.000;2023-12-20T03:17:14;101748.47;;;4.93;100.00
55301;BME280;58302;51.446;-2.000;2023-12-20T03:19:40;101757.25;;;5.02;100.00
55301;BME280;58302;51.446;-2.000;2023-12-20T03:22:06;101758.56;;;5.13;100.00
55301;BME280;58302;51.446;-2.000;2023-12-20T03:24:32;101770.88;;;5.22;100.00
55301;BME280;58302;51.446;-2.000;2023-12-20T03:26:58;101789.38;;;5.32;100.00
55301;BME280;58302;51.446;-2.000;2023-12-20T03:29:24;101789.00;;;5.41;100.00
55301;BME280;58302;51.446;-2.000;2023-12-20T03:31:50;101801.06;;;5.45;100.00
55301;BME280;58302;51.446;-2.000;2023-12-20T03:34:16;101809.59;;;5.49;100.00
55301;BME280;58302;51.446;-2.000;2023-12-20T03:36:42;101819.53;;;5.48;100.00
55301;BME280;58302;51.446;-2.000;2023-12-20T03:39:08;101845.28;;;5.51;100.00
55301;BME280;58302;51.446;-2.000;2023-12-20T03:41:35;101845.66;;;5.48;100.00
55301;BME280;58302;51.446;-2.000;2023-12-20T03:44:01;101866.41;;;5.47;100.00
55301;BME280;58302;51.446;-2.000;2023-12-20T03:46:27;101874.91;;;5.44;100.00
55301;BME280;58302;51.446;-2.000;2023-12-20T03:48:56;101875.53;;;5.46;100.00
55301;BME280;58302;51.446;-2.000;2023-12-20T03:51:22;101888.81;;;5.48;100.00
55301;BME280;58302;51.446;-2.000;2023-12-20T03:53:48;101894.78;;;5.43;100.00
55301;BME280;58302;51.446;-2.000;2023-12-20T03:56:13;101897.44;;;5.37;100.00
55301;BME280;58302;51.446;-2.000;2023-12-20T03:58:39;101907.13;;;5.31;100.00
55301;BME280;58302;51.446;-2.000;2023-12-20T04:01:11;101913.50;;;5.23;100.00
55301;BME280;58302;51.446;-2.000;2023-12-20T04:03:38;101921.53;;;5.17;100.00
55301;BME280;58302;51.446;-2.000;2023-12-20T04:06:05;101910.56;;;5.18;100.00
55301;BME280;58302;51.446;-2.000;2023-12-20T04:08:31;101901.06;;;5.22;100.00
55301;BME280;58302;51.446;-2.000;2023-12-20T04:10:57;101901.66;;;5.18;100.00
55301;BME280;58302;51.446;-2.000;2023-12-20T04:13:23;101888.78;;;5.20;100.00
55301;BME280;58302;51.446;-2.000;2023-12-20T04:15:49;101890.91;;;5.24;100.00
55301;BME280;58302;51.446;-2.000;2023-12-20T04:18:16;101878.31;;;5.32;100.00
55301;BME280;58302;51.446;-2.000;2023-12-20T04:20:42;101874.47;;;5.41;100.00
55301;BME280;58302;51.446;-2.000;2023-12-20T04:23:08;101863.09;;;5.45;100.00
55301;BME280;58302;51.446;-2.000;2023-12-20T04:25:34;101859.72;;;5.43;100.00
55301;BME280;58302;51.446;-2.000;2023-12-20T04:28:00;101848.56;;;5.46;100.00
55301;BME280;58302;51.446;-2.000;2023-12-20T04:30:26;101851.84;;;5.42;100.00
55301;BME280;58302;51.446;-2.000;2023-12-20T04:32:52;101858.47;;;5.39;100.00
55301;BME280;58302;51.446;-2.000;2023-12-20T04:35:18;101864.38;;;5.49;100.00
55301;BME280;58302;51.446;-2.000;2023-12-20T04:37:45;101864.81;;;5.60;100.00
55301;BME280;58302;51.446;-2.000;2023-12-20T04:40:11;101871.94;;;5.67;100.00
55301;BME280;58302;51.446;-2.000;2023-12-20T04:42:37;101864.75;;;5.81;100.00
55301;BME280;58302;51.446;-2.000;2023-12-20T04:45:04;101882.22;;;5.85;100.00
55301;BME280;58302;51.446;-2.000;2023-12-20T04:47:30;101883.09;;;5.92;100.00
55301;BME280;58302;51.446;-2.000;2023-12-20T04:49:56;101881.31;;;6.06;100.00
55301;BME280;58302;51.446;-2.000;2023-12-20T04:52:22;101878.88;;;6.11;100.00
55301;BME280;58302;51.446;-2.000;2023-12-20T04:54:48;101912.50;;;6.15;100.00
55301;BME280;58302;51.446;-2.000;2023-12-20T04:57:14;101913.38;;;6.22;100.00
55301;BME280;58302;51.446;-2.000;2023-12-20T04:59:40;101924.81;;;6.31;100.00
55301;BME280;58302;51.446;-2.000;2023-12-20T05:02:06;101930.88;;;6.33;100.00
55301;BME280;58302;51.446;-2.000;2023-12-20T05:04:32;101932.56;;;6.41;100.00
55301;BME280;58302;51.446;-2.000;2023-12-20T05:06:59;101943.38;;;6.47;100.00
55301;BME280;58302;51.446;-2.000;2023-12-20T05:09:24;101960.41;;;6.48;100.00
55301;BME280;58302;51.446;-2.000;2023-12-20T05:11:50;101957.13;;;6.52;100.00
55301;BME280;58302;51.446;-2.000;2023-12-20T05:14:16;101969.59;;;6.53;100.00
55301;BME280;58302;51.446;-2.000;2023-12-20T05:16:42;101977.50;;;6.48;100.00
55301;BME280;58302;51.446;-2.000;2023-12-20T05:19:08;101974.06;;;6.33;100.00
55301;BME280;58302;51.446;-2.000;2023-12-20T05:21:34;101982.75;;;6.22;100.00
55301;BME280;58302;51.446;-2.000;2023-12-20T05:24:01;101970.03;;;6.16;100.00
55301;BME280;58302;51.446;-2.000;2023-12-20T05:26:28;101968.34;;;6.15;100.00
55301;BME280;58302;51.446;-2.000;2023-12-20T05:28:55;101960.94;;;6.23;100.00
55301;BME280;58302;51.446;-2.000;2023-12-20T05:31:21;101943.97;;;6.36;100.00
55301;BME280;58302;51.446;-2.000;2023-12-20T05:33:47;101947.97;;;6.47;100.00
55301;BME280;58302;51.446;-2.000;2023-12-20T05:36:13;101932.22;;;6.57;100.00
55301;BME280;58302;51.446;-2.000;2023-12-20T05:38:40;101920.81;;;6.62;100.00
55301;BME280;58302;51.446;-2.000;2023-12-20T05:41:06;101900.41;;;6.59;100.00
55301;BME280;58302;51.446;-2.000;2023-12-20T05:43:32;101904.38;;;6.56;100.00
55301;BME280;58302;51.446;-2.000;2023-12-20T05:45:58;101895.66;;;6.54;100.00
55301;BME280;58302;51.446;-2.000;2023-12-20T05:48:24;101888.38;;;6.55;100.00
55301;BME280;58302;51.446;-2.000;2023-12-20T05:50:50;101891.25;;;6.47;100.00
55301;BME280;58302;51.446;-2.000;2023-12-20T05:53:16;101886.88;;;6.39;100.00
55301;BME280;58302;51.446;-2.000;2023-12-20T05:55:42;101881.25;;;6.34;100.00
55301;BME280;58302;51.446;-2.000;2023-12-20T05:58:08;101878.94;;;6.31;100.00
55301;BME280;58302;51.446;-2.000;2023-12-20T06:00:34;101885.38;;;6.37;100.00
55301;BME280;58302;51.446;-2.000;2023-12-20T06:03:00;101872.75;;;6.44;100.00
55301;BME280;58302;51.446;-2.000;2023-12-20T06:05:26;101871.50;;;6.46;100.00
55301;BME280;58302;51.446;-2.000;2023-12-20T06:07:52;101867.31;;;6.37;100.00
55301;BME280;58302;51.446;-2.000;2023-12-20T06:10:18;101868.56;;;6.28;100.00
55301;BME280;58302;51.446;-2.000;2023-12-20T06:12:44;101861.25;;;6.22;100.00
55301;BME280;58302;51.446;-2.000;2023-12-20T06:15:12;101861.44;;;6.20;100.00
55301;BME280;58302;51.446;-2.000;2023-12-20T06:17:38;101847.13;;;6.20;100.00
55301;BME280;58302;51.446;-2.000;2023-12-20T06:20:05;101856.03;;;6.20;100.00
55301;BME280;58302;51.446;-2.000;2023-12-20T06:22:34;101850.25;;;6.23;100.00
55301;BME280;58302;51.446;-2.000;2023-12-20T06:25:00;101839.84;;;6.20;100.00
55301;BME280;58302;51.446;-2.000;2023-12-20T06:27:26;101827.00;;;6.22;100.00
55301;BME280;58302;51.446;-2.000;2023-12-20T06:29:52;101821.19;;;6.25;100.00
55301;BME280;58302;51.446;-2.000;2023-12-20T06:32:18;101823.28;;;6.30;100.00
55301;BME280;58302;51.446;-2.000;2023-12-20T06:34:44;101811.25;;;6.32;100.00
55301;BME280;58302;51.446;-2.000;2023-12-20T06:37:10;101791.31;;;6.33;100.00
55301;BME280;58302;51.446;-2.000;2023-12-20T06:39:36;101793.41;;;6.38;100.00
55301;BME280;58302;51.446;-2.000;2023-12-20T06:42:02;101786.13;;;6.45;100.00
55301;BME280;58302;51.446;-2.000;2023-12-20T06:44:28;101782.81;;;6.50;100.00
55301;BME280;58302;51.446;-2.000;2023-12-20T06:46:54;101785.97;;;6.60;100.00
55301;BME280;58302;51.446;-2.000;2023-12-20T06:49:20;101788.66;;;6.67;100.00
55301;BME280;58302;51.446;-2.000;2023-12-20T06:51:46;101781.38;;;6.67;100.00
55301;BME280;58302;51.446;-2.000;2023-12-20T06:54:13;101797.16;;;6.70;100.00
55301;BME280;58302;51.446;-2.000;2023-12-20T06:56:38;101788.25;;;6.76;100.00
55301;BME280;58302;51.446;-2.000;2023-12-20T06:59:04;101792.00;;;6.82;100.00
55301;BME280;58302;51.446;-2.000;2023-12-20T07:01:30;101792.19;;;6.80;100.00
55301;BME280;58302;51.446;-2.000;2023-12-20T07:03:57;101783.25;;;6.80;100.00
55301;BME280;58302;51.446;-2.000;2023-12-20T07:06:23;101793.44;;;6.78;100.00
55301;BME280;58302;51.446;-2.000;2023-12-20T07:08:52;101784.69;;;6.69;100.00
55301;BME280;58302;51.446;-2.000;2023-12-20T07:11:18;101784.28;;;6.59;100.00
55301;BME280;58302;51.446;-2.000;2023-12-20T07:13:44;101787.63;;;6.54;100.00
55301;BME280;58302;51.446;-2.000;2023-12-20T07:16:10;101782.19;;;6.48;100.00
55301;BME280;58302;51.446;-2.000;2023-12-20T07:18:36;101782.63;;;6.51;100.00
55301;BME280;58302;51.446;-2.000;2023-12-20T07:21:02;101785.94;;;6.53;100.00
55301;BME280;58302;51.446;-2.000;2023-12-20T07:23:28;101784.69;;;6.56;100.00
55301;BME280;58302;51.446;-2.000;2023-12-20T07:25:54;101780.34;;;6.68;100.00
55301;BME280;58302;51.446;-2.000;2023-12-20T07:28:20;101775.78;;;6.75;100.00
55301;BME280;58302;51.446;-2.000;2023-12-20T07:30:46;101771.00;;;6.77;100.00
55301;BME280;58302;51.446;-2.000;2023-12-20T07:33:12;101776.81;;;6.81;100.00
55301;BME280;58302;51.446;-2.000;2023-12-20T07:35:38;101762.28;;;6.82;100.00
55301;BME280;58302;51.446;-2.000;2023-12-20T07:38:04;101770.78;;;6.85;100.00
55301;BME280;58302;51.446;-2.000;2023-12-20T07:40:30;101762.66;;;6.92;100.00
55301;BME280;58302;51.446;-2.000;2023-12-20T07:42:56;101776.19;;;6.99;100.00
55301;BME280;58302;51.446;-2.000;2023-12-20T07:45:22;101792.41;;;7.05;100.00
55301;BME280;58302;51.446;-2.000;2023-12-20T07:47:48;101787.63;;;7.07;100.00
55301;BME280;58302;51.446;-2.000;2023-12-20T07:50:15;101799.69;;;7.11;100.00
55301;BME280;58302;51.446;-2.000;2023-12-20T07:52:41;101800.72;;;7.17;100.00
55301;BME280;58302;51.446;-2.000;2023-12-20T07:55:07;101807.56;;;7.20;100.00
55301;BME280;58302;51.446;-2.000;2023-12-20T07:57:33;101825.03;;;7.24;100.00
55301;BME280;58302;51.446;-2.000;2023-12-20T07:59:59;101838.75;;;7.29;100.00
55301;BME280;58302;51.446;-2.000;2023-12-20T08:02:25;101839.81;;;7.34;100.00
55301;BME280;58302;51.446;-2.000;2023-12-20T08:04:51;101836.69;;;7.31;100.00
55301;BME280;58302;51.446;-2.000;2023-12-20T08:07:17;101848.97;;;7.33;100.00
55301;BME280;58302;51.446;-2.000;2023-12-20T08:09:44;101852.09;;;7.37;100.00
55301;BME280;58302;51.446;-2.000;2023-12-20T08:12:10;101847.72;;;7.43;100.00
55301;BME280;58302;51.446;-2.000;2023-12-20T08:14:37;101852.06;;;7.44;100.00
55301;BME280;58302;51.446;-2.000;2023-12-20T08:17:03;101866.44;;;7.44;100.00
55301;BME280;58302;51.446;-2.000;2023-12-20T08:19:29;101876.19;;;7.45;100.00
55301;BME280;58302;51.446;-2.000;2023-12-20T08:21:55;101871.63;;;7.46;100.00
55301;BME280;58302;51.446;-2.000;2023-12-20T08:24:21;101883.69;;;7.50;100.00
55301;BME280;58302;51.446;-2.000;2023-12-20T08:26:47;101893.88;;;7.54;100.00
55301;BME280;58302;51.446;-2.000;2023-12-20T08:29:13;101879.53;;;7.60;100.00
55301;BME280;58302;51.446;-2.000;2023-12-20T08:31:40;101887.19;;;7.63;100.00
55301;BME280;58302;51.446;-2.000;2023-12-20T08:34:06;101887.84;;;7.65;100.00
55301;BME280;58302;51.446;-2.000;2023-12-20T08:36:32;101895.09;;;7.72;100.00
55301;BME280;58302;51.446;-2.000;2023-12-20T08:38:58;101888.25;;;7.76;100.00
55301;BME280;58302;51.446;-2.000;2023-12-20T08:41:26;101900.72;;;7.77;100.00
55301;BME280;58302;51.446;-2.000;2023-12-20T08:43:52;101896.56;;;7.81;100.00
55301;BME280;58302;51.446;-2.000;2023-12-20T08:46:18;101894.47;;;7.83;100.00
55301;BME280;58302;51.446;-2.000;2023-12-20T08:48:45;101904.69;;;7.81;100.00
55301;BME280;58302;51.446;-2.000;2023-12-20T08:51:13;101909.66;;;7.84;100.00
55301;BME280;58302;51.446;-2.000;2023-12-20T08:53:39;101925.25;;;7.95;100.00
55301;BME280;58302;51.446;-2.000;2023-12-20T08:56:05;101934.78;;;8.24;100.00
55301;BME280;58302;51.446;-2.000;2023-12-20T08:58:31;101949.25;;;8.56;100.00
55301;BME280;58302;51.446;-2.000;2023-12-20T09:00:57;101961.28;;;8.74;100.00
55301;BME280;58302;51.446;-2.000;2023-12-20T09:03:26;101986.47;;;8.81;100.00
55301;BME280;58302;51.446;-2.000;2023-12-20T09:05:52;102013.19;;;8.70;100.00
55301;BME280;58302;51.446;-2.000;2023-12-20T09:08:18;102046.38;;;8.59;100.00
55301;BME280;58302;51.446;-2.000;2023-12-20T09:10:44;102048.47;;;8.51;100.00
55301;BME280;58302;51.446;-2.000;2023-12-20T09:13:11;102035.97;;;8.50;100.00
55301;BME280;58302;51.446;-2.000;2023-12-20T09:15:37;102027.63;;;8.58;100.00
55301;BME280;58302;51.446;-2.000;2023-12-20T09:18:03;102028.41;;;8.71;100.00
55301;BME280;58302;51.446;-2.000;2023-12-20T09:20:29;102018.81;;;8.76;100.00
55301;BME280;58302;51.446;-2.000;2023-12-20T09:22:55;102039.69;;;8.68;100.00
55301;BME280;58302;51.446;-2.000;2023-12-20T09:25:22;102047.22;;;8.60;100.00
55301;BME280;58302;51.446;-2.000;2023-12-20T09:27:49;102035.97;;;8.56;100.00
55301;BME280;58302;51.446;-2.000;2023-12-20T09:30:15;102025.34;;;8.55;100.00
55301;BME280;58302;51.446;-2.000;2023-12-20T09:32:41;102017.84;;;8.50;100.00
55301;BME280;58302;51.446;-2.000;2023-12-20T09:35:07;102012.69;;;8.42;100.00
55301;BME280;58302;51.446;-2.000;2023-12-20T09:37:36;102005.78;;;8.39;100.00
55301;BME280;58302;51.446;-2.000;2023-12-20T09:40:03;101987.47;;;8.41;100.00
55301;BME280;58302;51.446;-2.000;2023-12-20T09:42:38;101967.56;;;8.61;100.00
55301;BME280;58302;51.446;-2.000;2023-12-20T09:45:08;101951.84;;;8.83;100.00
55301;BME280;58302;51.446;-2.000;2023-12-20T09:47:35;101959.75;;;8.84;100.00
55301;BME280;58302;51.446;-2.000;2023-12-20T09:50:05;101982.13;;;8.73;100.00
55301;BME280;58302;51.446;-2.000;2023-12-20T09:52:40;101981.34;;;8.59;100.00
55301;BME280;58302;51.446;-2.000;2023-12-20T09:55:09;101981.38;;;8.53;100.00
55301;BME280;58302;51.446;-2.000;2023-12-20T09:57:37;101970.13;;;8.49;100.00
55301;BME280;58302;51.446;-2.000;2023-12-20T10:00:03;101970.13;;;8.49;100.00
55301;BME280;58302;51.446;-2.000;2023-12-20T10:02:30;101969.06;;;8.50;100.00
55301;BME280;58302;51.446;-2.000;2023-12-20T10:04:59;101958.47;;;8.49;100.00
55301;BME280;58302;51.446;-2.000;2023-12-20T10:07:26;101956.16;;;8.45;100.00
55301;BME280;58302;51.446;-2.000;2023-12-20T10:09:54;101958.03;;;8.45;100.00
55301;BME280;58302;51.446;-2.000;2023-12-20T10:12:21;101955.97;;;8.47;100.00
55301;BME280;58302;51.446;-2.000;2023-12-20T10:14:47;101941.97;;;8.50;100.00
55301;BME280;58302;51.446;-2.000;2023-12-20T10:17:12;101930.94;;;8.52;100.00
55301;BME280;58302;51.446;-2.000;2023-12-20T10:19:38;101937.19;;;8.52;100.00
55301;BME280;58302;51.446;-2.000;2023-12-20T10:22:05;101929.69;;;8.54;100.00
55301;BME280;58302;51.446;-2.000;2023-12-20T10:24:31;101933.41;;;8.60;100.00
55301;BME280;58302;51.446;-2.000;2023-12-20T10:27:04;101938.19;;;8.64;100.00
55301;BME280;58302;51.446;-2.000;2023-12-20T10:29:35;101934.59;;;8.70;100.00
55301;BME280;58302;51.446;-2.000;2023-12-20T10:32:23;101930.19;;;8.76;100.00
55301;BME280;58302;51.446;-2.000;2023-12-20T10:34:50;101934.97;;;8.81;100.00
55301;BME280;58302;51.446;-2.000;2023-12-20T10:37:16;101939.94;;;8.84;100.00
55301;BME280;58302;51.446;-2.000;2023-12-20T10:39:43;101922.84;;;8.83;100.00
55301;BME280;58302;51.446;-2.000;2023-12-20T10:42:13;101915.31;;;8.92;100.00
55301;BME280;58302;51.446;-2.000;2023-12-20T10:44:40;101910.06;;;8.97;100.00
55301;BME280;58302;51.446;-2.000;2023-12-20T10:47:06;101912.72;;;9.04;100.00
55301;BME280;58302;51.446;-2.000;2023-12-20T10:49:34;101903.09;;;9.08;100.00
55301;BME280;58302;51.446;-2.000;2023-12-20T10:52:03;101904.69;;;9.15;100.00
55301;BME280;58302;51.446;-2.000;2023-12-20T10:54:30;101899.88;;;9.17;100.00
55301;BME280;58302;51.446;-2.000;2023-12-20T10:56:57;101895.09;;;9.19;100.00
55301;BME280;58302;51.446;-2.000;2023-12-20T10:59:24;101904.88;;;9.20;100.00
55301;BME280;58302;51.446;-2.000;2023-12-20T11:01:52;101899.63;;;9.26;100.00
55301;BME280;58302;51.446;-2.000;2023-12-20T11:04:36;101883.94;;;9.28;100.00
55301;BME280;58302;51.446;-2.000;2023-12-20T11:07:33;101901.91;;;9.29;100.00
55301;BME280;58302;51.446;-2.000;2023-12-20T11:10:24;101889.78;;;9.31;100.00
55301;BME280;58302;51.446;-2.000;2023-12-20T11:13:08;101890.34;;;9.40;100.00
55301;BME280;58302;51.446;-2.000;2023-12-20T11:15:36;101868.78;;;9.45;100.00
55301;BME280;58302;51.446;-2.000;2023-12-20T11:18:04;101847.69;;;9.47;100.00
55301;BME280;58302;51.446;-2.000;2023-12-20T11:20:37;101864.28;;;9.57;100.00
55301;BME280;58302;51.446;-2.000;2023-12-20T11:23:04;101870.91;;;9.61;100.00
55301;BME280;58302;51.446;-2.000;2023-12-20T11:25:45;101856.75;;;9.59;100.00
55301;BME280;58302;51.446;-2.000;2023-12-20T11:28:12;101852.59;;;9.57;100.00
55301;BME280;58302;51.446;-2.000;2023-12-20T11:30:54;101851.91;;;9.61;100.00
55301;BME280;58302;51.446;-2.000;2023-12-20T11:33:24;101858.19;;;9.62;100.00
55301;BME280;58302;51.446;-2.000;2023-12-20T11:35:51;101845.88;;;9.59;100.00
55301;BME280;58302;51.446;-2.000;2023-12-20T11:38:20;101841.75;;;9.57;100.00
55301;BME280;58302;51.446;-2.000;2023-12-20T11:40:48;101825.22;;;9.58;100.00
55301;BME280;58302;51.446;-2.000;2023-12-20T11:43:31;101822.03;;;9.61;100.00
55301;BME280;58302;51.446;-2.000;2023-12-20T11:46:07;101817.59;;;9.67;100.00
55301;BME280;58302;51.446;-2.000;2023-12-20T11:48:38;101813.78;;;9.74;100.00
55301;BME280;58302;51.446;-2.000;2023-12-20T11:51:10;101804.97;;;9.79;100.00
55301;BME280;58302;51.446;-2.000;2023-12-20T11:53:37;101821.59;;;9.83;100.00
55301;BME280;58302;51.446;-2.000;2023-12-20T11:56:05;101818.16;;;9.75;100.00
55301;BME280;58302;51.446;-2.000;2023-12-20T11:58:32;101815.91;;;9.72;100.00
55301;BME280;58302;51.446;-2.000;2023-12-20T12:00:58;101819.66;;;9.71;100.00
55301;BME280;58302;51.446;-2.000;2023-12-20T12:03:24;101802.75;;;9.69;100.00
55301;BME280;58302;51.446;-2.000;2023-12-20T12:05:50;101800.44;;;9.73;100.00
55301;BME280;58302;51.446;-2.000;2023-12-20T12:08:17;101781.94;;;9.82;100.00
55301;BME280;58302;51.446;-2.000;2023-12-20T12:10:46;101773.66;;;9.95;100.00
55301;BME280;58302;51.446;-2.000;2023-12-20T12:13:12;101761.09;;;10.12;100.00
55301;BME280;58302;51.446;-2.000;2023-12-20T12:15:40;101770.78;;;10.20;100.00
55301;BME280;58302;51.446;-2.000;2023-12-20T12:18:10;101768.97;;;10.32;100.00
55301;BME280;58302;51.446;-2.000;2023-12-20T12:20:36;101782.63;;;10.44;100.00
55301;BME280;58302;51.446;-2.000;2023-12-20T12:23:04;101793.25;;;10.45;100.00
55301;BME280;58302;51.446;-2.000;2023-12-20T12:25:32;101809.03;;;10.37;100.00
55301;BME280;58302;51.446;-2.000;2023-12-20T12:27:58;101816.91;;;10.26;100.00
55301;BME280;58302;51.446;-2.000;2023-12-20T12:30:24;101812.22;;;10.15;100.00
55301;BME280;58302;51.446;-2.000;2023-12-20T12:32:55;101800.53;;;10.15;100.00
55301;BME280;58302;51.446;-2.000;2023-12-20T12:35:21;101795.66;;;10.23;100.00
55301;BME280;58302;51.446;-2.000;2023-12-20T12:37:48;101778.44;;;10.29;100.00
55301;BME280;58302;51.446;-2.000;2023-12-20T12:40:15;101773.81;;;10.30;100.00